createdAt,value
2022-12-17T00:02:41.604Z,1.47
2022-12-17T00:05:26.615Z,1.50
2022-12-17T00:08:11.382Z,1.48
2022-12-17T00:10:56.052Z,1.42
2022-12-17T00:13:41.383Z,1.39
2022-12-17T00:16:26.119Z,1.37
2022-12-17T00:19:11.419Z,1.27
2022-12-17T00:21:56.292Z,1.23
2022-12-17T00:24:41.324Z,1.20
2022-12-17T00:27:26.086Z,1.25
2022-12-17T00:30:10.891Z,1.35
2022-12-17T00:32:55.568Z,1.46
2022-12-17T00:35:40.378Z,1.54
2022-12-17T00:38:25.189Z,1.59
2022-12-17T00:41:09.923Z,1.48
2022-12-17T00:43:56.349Z,1.29
2022-12-17T00:46:41.409Z,1.17
2022-12-17T00:49:26.056Z,1.05
2022-12-17T00:52:10.977Z,1.16
2022-12-17T00:54:55.639Z,1.16
2022-12-17T00:57:41.528Z,1.10
2022-12-17T01:00:26.393Z,1.00
2022-12-17T01:03:11.136Z,0.98
2022-12-17T01:05:55.884Z,1.09
2022-12-17T01:08:41.086Z,1.22
2022-12-17T01:11:25.896Z,1.35
2022-12-17T01:14:10.739Z,1.46
2022-12-17T01:16:56.339Z,1.56
2022-12-17T01:19:41.388Z,1.64
2022-12-17T01:22:26.154Z,1.74
2022-12-17T01:25:10.848Z,1.79
2022-12-17T01:27:55.610Z,1.82
2022-12-17T01:30:41.407Z,1.80
2022-12-17T01:33:26.239Z,1.85
2022-12-17T01:36:10.937Z,1.87
2022-12-17T01:38:55.622Z,1.94
2022-12-17T01:41:40.380Z,1.96
2022-12-17T01:44:25.137Z,1.96
2022-12-17T01:47:09.815Z,1.99
2022-12-17T01:49:54.535Z,2.02
2022-12-17T01:52:39.363Z,2.05
2022-12-17T01:55:24.013Z,2.04
2022-12-17T01:58:08.851Z,2.00
2022-12-17T02:00:53.570Z,1.93
2022-12-17T02:03:39.265Z,1.88
2022-12-17T02:06:24.186Z,1.87
2022-12-17T02:09:08.815Z,1.82
2022-12-17T02:11:53.698Z,1.68
2022-12-17T02:14:38.356Z,1.53
2022-12-17T02:17:23.262Z,1.51
2022-12-17T02:20:07.950Z,1.54
2022-12-17T02:22:52.760Z,1.48
2022-12-17T02:25:37.324Z,1.40
2022-12-17T02:28:22.087Z,1.37
2022-12-17T02:31:06.764Z,1.37
2022-12-17T02:33:51.714Z,1.27
2022-12-17T02:36:36.325Z,1.18
2022-12-17T02:39:21.044Z,1.13
2022-12-17T02:42:05.878Z,1.14
2022-12-17T02:44:50.642Z,1.19
2022-12-17T02:47:35.447Z,1.13
2022-12-17T02:50:20.188Z,1.03
2022-12-17T02:53:04.998Z,1.02
2022-12-17T02:55:49.660Z,1.07
2022-12-17T02:58:34.297Z,1.14
2022-12-17T03:01:19.163Z,1.26
2022-12-17T03:04:04.473Z,1.34
2022-12-17T03:06:49.185Z,1.42
2022-12-17T03:09:33.860Z,1.48
2022-12-17T03:12:18.805Z,1.54
2022-12-17T03:15:03.489Z,1.56
2022-12-17T03:17:48.436Z,1.60
2022-12-17T03:20:33.136Z,1.51
2022-12-17T03:23:17.960Z,1.39
2022-12-17T03:26:02.631Z,1.38
2022-12-17T03:28:47.498Z,1.26
2022-12-17T03:31:32.454Z,1.24
2022-12-17T03:34:17.639Z,1.25
2022-12-17T03:37:02.586Z,1.35
2022-12-17T03:39:47.368Z,1.39
2022-12-17T03:42:32.190Z,1.41
2022-12-17T03:45:16.982Z,1.48
2022-12-17T03:48:01.739Z,1.43
2022-12-17T03:50:47.047Z,1.48
2022-12-17T03:53:31.938Z,1.50
2022-12-17T03:56:16.606Z,1.51
2022-12-17T03:59:01.432Z,1.48
2022-12-17T04:01:46.300Z,1.46
2022-12-17T04:04:31.447Z,1.42
2022-12-17T04:07:16.125Z,1.27
2022-12-17T04:10:00.857Z,1.17
2022-12-17T04:12:45.698Z,1.18
2022-12-17T04:15:30.313Z,1.19
2022-12-17T04:18:15.105Z,1.20
2022-12-17T04:20:59.903Z,1.21
2022-12-17T04:23:44.821Z,1.23
2022-12-17T04:26:29.545Z,1.26
2022-12-17T04:29:14.165Z,1.25
2022-12-17T04:31:59.023Z,1.27
2022-12-17T04:34:43.835Z,1.24
2022-12-17T04:37:28.628Z,1.23
2022-12-17T04:40:13.302Z,1.22
2022-12-17T04:42:58.062Z,1.20
2022-12-17T04:45:42.677Z,1.08
2022-12-17T04:48:27.406Z,1.01
2022-12-17T04:51:12.104Z,0.89
2022-12-17T04:53:56.925Z,0.69
2022-12-17T04:56:41.604Z,0.57
2022-12-17T04:59:26.346Z,0.43
2022-12-17T05:02:11.289Z,0.27
2022-12-17T05:04:56.487Z,0.05
2022-12-17T05:07:41.300Z,0.02
2022-12-17T05:10:25.889Z,0.00
2022-12-17T05:13:10.738Z,-0.08
2022-12-17T05:15:55.449Z,-0.25
2022-12-17T05:18:40.087Z,-0.36
2022-12-17T05:21:25.005Z,-0.38
2022-12-17T05:24:11.048Z,-0.37
2022-12-17T05:26:55.975Z,-0.48
2022-12-17T05:29:42.182Z,-0.55
2022-12-17T05:32:26.983Z,-0.64
2022-12-17T05:35:11.731Z,-0.72
2022-12-17T05:37:56.628Z,-0.78
2022-12-17T05:40:41.507Z,-0.71
2022-12-17T05:43:26.345Z,-0.65
2022-12-17T05:46:11.269Z,-0.66
2022-12-17T05:48:55.971Z,-0.64
2022-12-17T05:51:40.771Z,-0.62
2022-12-17T05:54:25.598Z,-0.58
2022-12-17T05:57:10.543Z,-0.53
2022-12-17T05:59:57.808Z,-0.44
2022-12-17T06:02:42.823Z,-0.42
2022-12-17T06:05:28.002Z,-0.42
2022-12-17T06:08:12.796Z,-0.43
2022-12-17T06:10:57.458Z,-0.52
2022-12-17T06:13:42.091Z,-0.60
2022-12-17T06:16:26.981Z,-0.61
2022-12-17T06:19:11.626Z,-0.65
2022-12-17T06:21:56.442Z,-0.70
2022-12-17T06:24:45.680Z,-0.70
2022-12-17T06:27:30.867Z,-0.64
2022-12-17T06:30:18.815Z,-0.58
2022-12-17T06:33:04.195Z,-0.63
2022-12-17T06:35:48.883Z,-0.60
2022-12-17T06:38:33.600Z,-0.61
2022-12-17T06:41:18.269Z,-0.48
2022-12-17T06:44:03.130Z,-0.41
2022-12-17T06:46:47.817Z,-0.35
2022-12-17T06:49:32.677Z,-0.17
2022-12-17T06:52:17.460Z,-0.05
2022-12-17T06:55:02.171Z,0.00
2022-12-17T06:57:50.352Z,0.04
2022-12-17T07:00:35.555Z,0.07
2022-12-17T07:03:20.512Z,0.07
2022-12-17T07:06:05.095Z,0.10
2022-12-17T07:08:49.915Z,0.09
2022-12-17T07:11:34.801Z,0.15
2022-12-17T07:14:19.551Z,0.20
2022-12-17T07:17:04.360Z,0.25
2022-12-17T07:19:49.048Z,0.25
2022-12-17T07:22:33.925Z,0.32
2022-12-17T07:25:18.855Z,0.39
2022-12-17T07:28:03.567Z,0.41
2022-12-17T07:30:52.640Z,0.37
2022-12-17T07:33:40.500Z,0.45
2022-12-17T07:36:25.205Z,0.50
2022-12-17T07:39:09.952Z,0.57
2022-12-17T07:41:54.695Z,0.62
2022-12-17T07:44:39.326Z,0.63
2022-12-17T07:47:24.078Z,0.60
2022-12-17T07:50:08.814Z,0.62
2022-12-17T07:52:53.495Z,0.60
2022-12-17T07:55:38.355Z,0.61
2022-12-17T07:58:23.042Z,0.62
2022-12-17T08:01:07.954Z,0.60
2022-12-17T08:03:52.633Z,0.50
2022-12-17T08:06:37.326Z,0.50
2022-12-17T08:09:22.044Z,0.48
2022-12-17T08:12:06.954Z,0.58
2022-12-17T08:14:51.554Z,0.67
2022-12-17T08:17:36.377Z,0.79
2022-12-17T08:20:21.173Z,0.98
2022-12-17T08:23:06.023Z,1.13
2022-12-17T08:25:50.827Z,1.23
2022-12-17T08:28:50.441Z,1.32
2022-12-17T08:31:36.195Z,1.41
2022-12-17T08:34:21.012Z,1.52
2022-12-17T08:37:05.770Z,1.59
2022-12-17T08:39:50.428Z,1.68
2022-12-17T08:42:35.219Z,1.79
2022-12-17T08:45:19.921Z,1.86
2022-12-17T08:48:04.693Z,1.92
2022-12-17T08:50:49.473Z,2.00
2022-12-17T08:53:35.135Z,2.04
2022-12-17T08:56:20.611Z,2.09
2022-12-17T08:59:05.278Z,2.13
2022-12-17T09:01:50.065Z,2.13
2022-12-17T09:04:36.338Z,2.18
2022-12-17T09:07:21.151Z,2.23
2022-12-17T09:10:05.861Z,2.32
2022-12-17T09:12:50.502Z,2.34
2022-12-17T09:15:35.186Z,2.43
2022-12-17T09:18:19.831Z,2.51
2022-12-17T09:21:04.582Z,2.59
2022-12-17T09:23:49.226Z,2.69
2022-12-17T09:26:34.227Z,2.79
2022-12-17T09:29:18.987Z,2.90
2022-12-17T09:32:03.815Z,3.03
2022-12-17T09:34:48.516Z,3.17
2022-12-17T09:37:33.339Z,3.31
2022-12-17T09:40:18.136Z,3.34
2022-12-17T09:43:03.142Z,3.27
2022-12-17T09:45:48.131Z,3.27
2022-12-17T09:48:33.219Z,3.43
2022-12-17T09:51:18.054Z,3.68
2022-12-17T09:54:02.846Z,4.15
2022-12-17T09:56:47.627Z,4.45
2022-12-17T09:59:32.306Z,4.73
2022-12-17T10:02:17.232Z,4.93
2022-12-17T10:05:02.382Z,5.10
2022-12-17T10:07:47.210Z,5.03
2022-12-17T10:10:32.075Z,4.88
2022-12-17T10:13:16.842Z,4.76
2022-12-17T10:16:01.703Z,4.50
2022-12-17T10:18:46.311Z,3.89
2022-12-17T10:21:31.074Z,3.55
2022-12-17T10:24:18.634Z,3.41
2022-12-17T10:27:03.429Z,3.17
2022-12-17T10:29:48.624Z,2.97
2022-12-17T10:32:33.776Z,2.81
2022-12-17T10:35:18.613Z,2.74
2022-12-17T10:38:03.309Z,2.53
2022-12-17T10:40:48.159Z,2.48
2022-12-17T10:43:33.249Z,2.43
2022-12-17T10:46:18.433Z,2.33
2022-12-17T10:49:08.237Z,2.39
2022-12-17T10:51:55.989Z,2.41
2022-12-17T10:54:45.320Z,2.44
2022-12-17T10:57:33.552Z,2.41
2022-12-17T11:00:18.444Z,2.41
2022-12-17T11:03:03.259Z,2.44
2022-12-17T11:05:48.470Z,2.43
2022-12-17T11:08:33.356Z,2.49
2022-12-17T11:11:18.665Z,2.55
2022-12-17T11:14:03.401Z,2.75
2022-12-17T11:16:48.073Z,2.89
2022-12-17T11:19:32.889Z,3.12
2022-12-17T11:22:17.622Z,3.09
2022-12-17T11:25:02.351Z,3.09
2022-12-17T11:27:47.152Z,3.03
2022-12-17T11:30:32.029Z,3.08
2022-12-17T11:33:16.666Z,3.24
2022-12-17T11:36:01.563Z,3.37
2022-12-17T11:38:46.260Z,3.31
2022-12-17T11:41:31.015Z,3.28
2022-12-17T11:44:15.809Z,3.19
2022-12-17T11:47:00.546Z,3.31
2022-12-17T11:49:45.373Z,3.37
2022-12-17T11:52:30.042Z,3.48
2022-12-17T11:55:14.824Z,3.56
2022-12-17T11:57:59.566Z,3.62
2022-12-17T12:00:44.334Z,3.44
2022-12-17T12:03:29.076Z,3.37
2022-12-17T12:06:14.268Z,3.40
2022-12-17T12:08:58.992Z,3.49
2022-12-17T12:11:43.781Z,3.53
2022-12-17T12:14:28.698Z,3.54
2022-12-17T12:17:13.506Z,3.66
2022-12-17T12:19:58.344Z,3.83
2022-12-17T12:22:43.093Z,3.68
2022-12-17T12:25:27.970Z,3.60
2022-12-17T12:28:12.754Z,3.39
2022-12-17T12:30:57.489Z,3.27
2022-12-17T12:33:42.191Z,3.17
2022-12-17T12:36:26.930Z,3.16
2022-12-17T12:39:11.617Z,3.08
2022-12-17T12:41:56.453Z,3.01
2022-12-17T12:44:42.427Z,3.10
2022-12-17T12:47:28.429Z,3.11
2022-12-17T12:50:13.179Z,3.09
2022-12-17T12:52:57.865Z,3.08
2022-12-17T12:55:42.718Z,3.09
2022-12-17T12:58:27.474Z,3.24
2022-12-17T13:01:12.458Z,3.26
2022-12-17T13:03:57.610Z,3.29
2022-12-17T13:06:42.509Z,3.29
2022-12-17T13:09:33.864Z,3.28
2022-12-17T13:12:19.736Z,3.29
2022-12-17T13:15:04.345Z,3.42
2022-12-17T13:17:49.196Z,3.40
2022-12-17T13:20:33.750Z,3.42
2022-12-17T13:23:18.518Z,3.48
2022-12-17T13:26:03.298Z,3.54
2022-12-17T13:28:49.206Z,3.58
2022-12-17T13:31:33.916Z,3.63
2022-12-17T13:34:18.750Z,3.69
2022-12-17T13:37:03.641Z,3.65
2022-12-17T13:39:48.368Z,3.51
2022-12-17T13:42:33.270Z,3.30
2022-12-17T13:45:17.950Z,3.31
2022-12-17T13:48:02.675Z,3.38
2022-12-17T13:50:47.436Z,3.24
2022-12-17T13:53:32.256Z,3.08
2022-12-17T13:56:16.963Z,2.96
2022-12-17T13:59:07.734Z,2.79
2022-12-17T14:01:54.245Z,2.70
2022-12-17T14:04:39.414Z,2.58
2022-12-17T14:07:24.071Z,2.45
2022-12-17T14:10:08.935Z,2.38
2022-12-17T14:12:53.804Z,2.35
2022-12-17T14:15:38.504Z,2.34
2022-12-17T14:18:23.147Z,2.29
2022-12-17T14:21:07.990Z,2.27
2022-12-17T14:23:52.709Z,2.30
2022-12-17T14:26:37.521Z,2.35
2022-12-17T14:29:22.298Z,2.36
2022-12-17T14:32:07.110Z,2.40
2022-12-17T14:34:55.842Z,2.44
2022-12-17T14:37:43.570Z,2.40
2022-12-17T14:40:28.331Z,2.34
2022-12-17T14:43:13.014Z,2.33
2022-12-17T14:45:57.843Z,2.24
2022-12-17T14:48:42.596Z,2.25
2022-12-17T14:51:27.313Z,2.24
2022-12-17T14:54:12.047Z,2.27
2022-12-17T14:56:56.927Z,2.17
2022-12-17T14:59:41.816Z,2.08
2022-12-17T15:02:26.969Z,1.97
2022-12-17T15:05:11.836Z,1.95
2022-12-17T15:07:56.768Z,1.87
2022-12-17T15:10:41.464Z,1.80
2022-12-17T15:13:26.319Z,1.85
2022-12-17T15:16:11.274Z,1.89
2022-12-17T15:18:56.332Z,1.80
2022-12-17T15:21:41.109Z,1.74
2022-12-17T15:24:25.936Z,1.69
2022-12-17T15:27:10.793Z,1.65
2022-12-17T15:29:55.518Z,1.63
2022-12-17T15:32:40.365Z,1.55
2022-12-17T15:35:25.241Z,1.49
2022-12-17T15:38:10.101Z,1.46
2022-12-17T15:40:54.781Z,1.46
2022-12-17T15:43:39.642Z,1.40
2022-12-17T15:46:24.347Z,1.35
2022-12-17T15:49:09.038Z,1.34
2022-12-17T15:51:53.733Z,1.33
2022-12-17T15:54:38.575Z,1.31
2022-12-17T15:57:23.284Z,1.30
2022-12-17T16:00:08.343Z,1.27
2022-12-17T16:02:53.794Z,1.23
2022-12-17T16:05:38.851Z,1.17
2022-12-17T16:08:23.581Z,1.16
2022-12-17T16:11:08.347Z,1.12
2022-12-17T16:13:53.145Z,1.09
2022-12-17T16:16:37.985Z,1.09
2022-12-17T16:19:22.843Z,1.12
2022-12-17T16:22:07.522Z,1.16
2022-12-17T16:24:52.155Z,1.14
2022-12-17T16:27:36.862Z,1.10
2022-12-17T16:30:21.622Z,1.04
2022-12-17T16:33:06.375Z,1.02
2022-12-17T16:35:51.181Z,1.00
2022-12-17T16:38:36.450Z,1.01
2022-12-17T16:41:21.764Z,1.03
2022-12-17T16:44:06.498Z,1.02
2022-12-17T16:46:51.346Z,1.02
2022-12-17T16:49:36.513Z,1.01
2022-12-17T16:52:21.253Z,1.03
2022-12-17T16:55:06.034Z,1.08
2022-12-17T16:57:50.830Z,1.05
2022-12-17T17:00:35.551Z,1.05
2022-12-17T17:03:20.599Z,1.08
2022-12-17T17:06:05.509Z,1.10
2022-12-17T17:08:50.245Z,1.17
2022-12-17T17:11:34.915Z,1.14
2022-12-17T17:14:19.770Z,1.08
2022-12-17T17:17:04.579Z,1.06
2022-12-17T17:19:49.336Z,1.09
2022-12-17T17:22:34.104Z,1.07
2022-12-17T17:25:18.938Z,1.00
2022-12-17T17:28:03.623Z,0.88
2022-12-17T17:30:48.417Z,0.88
2022-12-17T17:33:33.221Z,0.89
2022-12-17T17:36:17.872Z,0.98
2022-12-17T17:39:02.491Z,0.87
2022-12-17T17:41:47.159Z,0.93
2022-12-17T17:44:31.741Z,0.97
2022-12-17T17:47:16.456Z,0.88
2022-12-17T17:50:01.248Z,0.82
2022-12-17T17:52:46.031Z,0.80
2022-12-17T17:55:30.711Z,0.77
2022-12-17T17:58:15.627Z,0.72
2022-12-17T18:01:00.340Z,0.69
2022-12-17T18:03:45.297Z,0.63
2022-12-17T18:06:30.315Z,0.63
2022-12-17T18:09:15.182Z,0.62
2022-12-17T18:11:59.909Z,0.61
2022-12-17T18:15:12.004Z,0.59
2022-12-17T18:17:49.753Z,0.54
2022-12-17T18:20:34.524Z,0.52
2022-12-17T18:23:19.397Z,0.47
2022-12-17T18:26:04.074Z,0.47
2022-12-17T18:28:48.881Z,0.52
2022-12-17T18:31:33.638Z,0.55
2022-12-17T18:34:18.466Z,0.52
2022-12-17T18:37:03.423Z,0.53
2022-12-17T18:39:48.229Z,0.53
2022-12-17T18:42:33.179Z,0.55
2022-12-17T18:45:17.774Z,0.46
2022-12-17T18:48:02.536Z,0.41
2022-12-17T18:50:47.379Z,0.38
2022-12-17T18:53:31.995Z,0.40
2022-12-17T18:56:37.961Z,0.50
2022-12-17T18:59:27.085Z,0.53
2022-12-17T19:02:13.692Z,0.53
2022-12-17T19:04:58.898Z,0.57
2022-12-17T19:07:43.598Z,0.64
2022-12-17T19:10:28.422Z,0.60
2022-12-17T19:13:13.164Z,0.65
2022-12-17T19:15:57.863Z,0.65
2022-12-17T19:18:42.990Z,0.58
2022-12-17T19:21:27.750Z,0.54
2022-12-17T19:24:12.554Z,0.54
2022-12-17T19:26:57.158Z,0.51
2022-12-17T19:29:46.237Z,0.44
2022-12-17T19:32:34.388Z,0.39
2022-12-17T19:35:18.894Z,0.31
2022-12-17T19:38:03.712Z,0.23
2022-12-17T19:40:48.320Z,0.18
2022-12-17T19:43:33.135Z,0.15
2022-12-17T19:46:17.895Z,0.15
2022-12-17T19:49:02.583Z,0.11
2022-12-17T19:51:47.288Z,0.08
2022-12-17T19:54:32.027Z,0.03
2022-12-17T19:57:16.820Z,0.06
2022-12-17T20:00:01.435Z,0.08
2022-12-17T20:02:46.350Z,0.06
2022-12-17T20:05:31.335Z,-0.03
2022-12-17T20:08:22.178Z,-0.07
2022-12-17T20:11:07.570Z,-0.07
2022-12-17T20:13:54.468Z,-0.10
2022-12-17T20:16:39.472Z,-0.05
2022-12-17T20:19:24.322Z,-0.02
2022-12-17T20:22:09.125Z,-0.04
2022-12-17T20:24:53.961Z,0.06
2022-12-17T20:27:38.739Z,0.06
2022-12-17T20:30:23.441Z,-0.01
2022-12-17T20:33:08.133Z,0.04
2022-12-17T20:35:52.866Z,0.11
2022-12-17T20:38:37.991Z,0.06
2022-12-17T20:41:23.470Z,0.08
2022-12-17T20:44:08.535Z,0.17
2022-12-17T20:46:53.414Z,0.20
2022-12-17T20:49:38.237Z,0.16
2022-12-17T20:52:22.942Z,0.20
2022-12-17T20:55:07.798Z,0.18
2022-12-17T20:57:52.621Z,0.11
2022-12-17T21:00:37.388Z,0.05
2022-12-17T21:03:22.138Z,0.00
2022-12-17T21:06:07.411Z,-0.01
2022-12-17T21:08:52.528Z,0.00
2022-12-17T21:11:37.906Z,0.01
2022-12-17T21:14:22.689Z,0.02
2022-12-17T21:17:07.663Z,0.03
2022-12-17T21:19:52.912Z,0.03
2022-12-17T21:22:37.666Z,0.06
2022-12-17T21:25:22.356Z,0.07
2022-12-17T21:28:07.073Z,0.05
2022-12-17T21:30:51.989Z,0.04
2022-12-17T21:33:36.831Z,-0.06
2022-12-17T21:36:22.137Z,-0.18
2022-12-17T21:39:09.256Z,-0.30
2022-12-17T21:41:54.160Z,-0.13
2022-12-17T21:44:39.046Z,-0.25
2022-12-17T21:47:24.432Z,-0.44
2022-12-17T21:50:09.063Z,-0.42
2022-12-17T21:52:53.811Z,-0.32
2022-12-17T21:55:38.641Z,-0.37
2022-12-17T21:58:23.607Z,-0.50
2022-12-17T22:01:08.476Z,-0.59
2022-12-17T22:04:01.238Z,-0.52
2022-12-17T22:06:56.575Z,-0.49
2022-12-17T22:10:05.786Z,-0.45
2022-12-17T22:12:50.533Z,-0.41
2022-12-17T22:15:39.069Z,-0.34
2022-12-17T22:18:27.038Z,-0.42
2022-12-17T22:21:11.769Z,-0.54
2022-12-17T22:23:56.548Z,-0.60
2022-12-17T22:26:41.854Z,-0.48
2022-12-17T22:29:26.500Z,-0.44
2022-12-17T22:32:11.296Z,-0.54
2022-12-17T22:35:52.736Z,-0.58
2022-12-17T22:41:27.432Z,-0.54
2022-12-17T22:44:33.953Z,-0.55
2022-12-17T22:44:44.816Z,-0.54
2022-12-17T22:47:16.507Z,-0.57
2022-12-17T22:50:01.330Z,-0.63
2022-12-17T22:52:46.717Z,-0.63
2022-12-17T22:55:31.839Z,-0.59
2022-12-17T22:58:17.270Z,-0.58
2022-12-17T23:01:01.937Z,-0.62
2022-12-17T23:03:46.886Z,-0.57
2022-12-17T23:06:31.946Z,-0.57
2022-12-17T23:09:16.793Z,-0.59
2022-12-17T23:12:01.623Z,-0.65
2022-12-17T23:14:46.354Z,-0.72
2022-12-17T23:17:31.078Z,-0.63
2022-12-17T23:20:15.871Z,-0.61
2022-12-17T23:23:00.653Z,-0.63
2022-12-17T23:25:45.438Z,-0.65
2022-12-17T23:28:30.177Z,-0.76
2022-12-17T23:31:14.978Z,-0.74
2022-12-17T23:33:59.699Z,-0.86
2022-12-17T23:36:44.478Z,-0.93
2022-12-17T23:39:29.335Z,-1.02
2022-12-17T23:42:14.091Z,-1.05
2022-12-17T23:44:58.895Z,-1.00
2022-12-17T23:47:43.682Z,-0.84
2022-12-17T23:50:28.407Z,-0.75
2022-12-17T23:53:13.135Z,-0.74
2022-12-17T23:55:57.751Z,-0.65
2022-12-17T23:58:42.512Z,-0.64
